sensor_id;sensor_type;location;lat;lon;timestamp;pressure;altitude;pressure_sealevel;temperature
69007;BMP180;56061;51.748;19.620;2023-05-24T00:01:53;98531.80;;;16.60
69007;BMP180;56061;51.748;19.620;2023-05-24T00:04:22;98531.00;;;16.60
69007;BMP180;56061;51.748;19.620;2023-05-24T00:06:51;98530.20;;;16.60
69007;BMP180;56061;51.748;19.620;2023-05-24T00:09:20;98528.80;;;16.62
69007;BMP180;56061;51.748;19.620;2023-05-24T00:11:47;98524.00;;;16.70
69007;BMP180;56061;51.748;19.620;2023-05-24T00:14:13;98522.60;;;16.70
69007;BMP180;56061;51.748;19.620;2023-05-24T00:16:40;98523.60;;;16.70
69007;BMP180;56061;51.748;19.620;2023-05-24T00:19:06;98517.60;;;16.64
69007;BMP180;56061;51.748;19.620;2023-05-24T00:21:33;98517.80;;;16.60
69007;BMP180;56061;51.748;19.620;2023-05-24T00:24:02;98513.40;;;16.60
69007;BMP180;56061;51.748;19.620;2023-05-24T00:26:28;98513.20;;;16.50
69007;BMP180;56061;51.748;19.620;2023-05-24T00:28:55;98515.80;;;16.50
69007;BMP180;56061;51.748;19.620;2023-05-24T00:31:21;98517.20;;;16.50
69007;BMP180;56061;51.748;19.620;2023-05-24T00:33:48;98514.00;;;16.40
69007;BMP180;56061;51.748;19.620;2023-05-24T00:36:14;98517.40;;;16.40
69007;BMP180;56061;51.748;19.620;2023-05-24T00:38:40;98518.40;;;16.30
69007;BMP180;56061;51.748;19.620;2023-05-24T00:41:07;98518.60;;;16.30
69007;BMP180;56061;51.748;19.620;2023-05-24T00:43:33;98523.40;;;16.30
69007;BMP180;56061;51.748;19.620;2023-05-24T00:46:15;98524.60;;;16.30
69007;BMP180;56061;51.748;19.620;2023-05-24T00:48:44;98520.00;;;16.28
69007;BMP180;56061;51.748;19.620;2023-05-24T00:51:12;98526.40;;;16.20
69007;BMP180;56061;51.748;19.620;2023-05-24T00:53:45;98528.80;;;16.22
69007;BMP180;56061;51.748;19.620;2023-05-24T00:56:13;98529.40;;;16.28
69007;BMP180;56061;51.748;19.620;2023-05-24T00:58:41;98526.00;;;16.28
69007;BMP180;56061;51.748;19.620;2023-05-24T01:01:07;98532.60;;;16.30
69007;BMP180;56061;51.748;19.620;2023-05-24T01:03:34;98533.20;;;16.30
69007;BMP180;56061;51.748;19.620;2023-05-24T01:06:05;98533.20;;;16.30
69007;BMP180;56061;51.748;19.620;2023-05-24T01:11:20;98550.00;;;16.22
69007;BMP180;56061;51.748;19.620;2023-05-24T01:14:21;98553.80;;;16.30
69007;BMP180;56061;51.748;19.620;2023-05-24T01:17:13;98553.80;;;16.30
69007;BMP180;56061;51.748;19.620;2023-05-24T01:20:13;98546.00;;;16.20
69007;BMP180;56061;51.748;19.620;2023-05-24T01:23:05;98544.60;;;16.20
69007;BMP180;56061;51.748;19.620;2023-05-24T01:28:44;98542.80;;;16.02
69007;BMP180;56061;51.748;19.620;2023-05-24T01:31:14;98539.40;;;15.98
69007;BMP180;56061;51.748;19.620;2023-05-24T01:33:42;98541.40;;;15.90
69007;BMP180;56061;51.748;19.620;2023-05-24T01:36:09;98537.80;;;15.80
69007;BMP180;56061;51.748;19.620;2023-05-24T01:38:37;98547.00;;;15.80
69007;BMP180;56061;51.748;19.620;2023-05-24T01:43:55;98545.40;;;15.70
69007;BMP180;56061;51.748;19.620;2023-05-24T01:46:36;98549.20;;;15.70
69007;BMP180;56061;51.748;19.620;2023-05-24T01:49:22;98551.60;;;15.70
69007;BMP180;56061;51.748;19.620;2023-05-24T01:52:11;98547.20;;;15.60
69007;BMP180;56061;51.748;19.620;2023-05-24T01:54:52;98549.00;;;15.60
69007;BMP180;56061;51.748;19.620;2023-05-24T01:57:23;98552.20;;;15.52
69007;BMP180;56061;51.748;19.620;2023-05-24T01:59:53;98560.00;;;15.50
69007;BMP180;56061;51.748;19.620;2023-05-24T02:02:20;98561.20;;;15.50
69007;BMP180;56061;51.748;19.620;2023-05-24T02:04:47;98558.00;;;15.50
69007;BMP180;56061;51.748;19.620;2023-05-24T02:07:14;98559.00;;;15.50
69007;BMP180;56061;51.748;19.620;2023-05-24T02:09:40;98552.00;;;15.42
69007;BMP180;56061;51.748;19.620;2023-05-24T02:12:08;98552.60;;;15.40
69007;BMP180;56061;51.748;19.620;2023-05-24T02:14:34;98553.00;;;15.40
69007;BMP180;56061;51.748;19.620;2023-05-24T02:17:04;98549.40;;;15.38
69007;BMP180;56061;51.748;19.620;2023-05-24T02:19:31;98553.40;;;15.30
69007;BMP180;56061;51.748;19.620;2023-05-24T02:21:59;98552.20;;;15.30
69007;BMP180;56061;51.748;19.620;2023-05-24T02:24:26;98552.00;;;15.30
69007;BMP180;56061;51.748;19.620;2023-05-24T02:26:53;98550.40;;;15.20
69007;BMP180;56061;51.748;19.620;2023-05-24T02:29:21;98552.60;;;15.20
69007;BMP180;56061;51.748;19.620;2023-05-24T02:31:48;98558.00;;;15.20
69007;BMP180;56061;51.748;19.620;2023-05-24T02:34:20;98555.20;;;15.20
69007;BMP180;56061;51.748;19.620;2023-05-24T02:36:49;98563.00;;;15.12
69007;BMP180;56061;51.748;19.620;2023-05-24T02:39:16;98566.40;;;15.10
69007;BMP180;56061;51.748;19.620;2023-05-24T02:41:42;98569.60;;;15.10
69007;BMP180;56061;51.748;19.620;2023-05-24T02:44:09;98578.20;;;15.10
69007;BMP180;56061;51.748;19.620;2023-05-24T02:46:36;98579.60;;;15.10
69007;BMP180;56061;51.748;19.620;2023-05-24T02:49:02;98576.80;;;15.10
69007;BMP180;56061;51.748;19.620;2023-05-24T02:51:30;98581.40;;;15.10
69007;BMP180;56061;51.748;19.620;2023-05-24T02:53:58;98583.00;;;15.10
69007;BMP180;56061;51.748;19.620;2023-05-24T02:56:24;98580.20;;;15.10
69007;BMP180;56061;51.748;19.620;2023-05-24T02:58:52;98577.60;;;15.10
69007;BMP180;56061;51.748;19.620;2023-05-24T03:01:19;98574.80;;;15.10
69007;BMP180;56061;51.748;19.620;2023-05-24T03:03:55;98576.20;;;15.04
69007;BMP180;56061;51.748;19.620;2023-05-24T03:06:22;98575.80;;;15.00
69007;BMP180;56061;51.748;19.620;2023-05-24T03:08:48;98577.60;;;15.00
69007;BMP180;56061;51.748;19.620;2023-05-24T03:11:15;98578.80;;;15.00
69007;BMP180;56061;51.748;19.620;2023-05-24T03:13:44;98579.20;;;15.00
69007;BMP180;56061;51.748;19.620;2023-05-24T03:16:14;98582.60;;;15.00
69007;BMP180;56061;51.748;19.620;2023-05-24T03:18:42;98579.20;;;15.06
69007;BMP180;56061;51.748;19.620;2023-05-24T03:21:08;98583.00;;;15.10
69007;BMP180;56061;51.748;19.620;2023-05-24T03:23:35;98588.00;;;15.10
69007;BMP180;56061;51.748;19.620;2023-05-24T03:26:01;98596.80;;;15.10
69007;BMP180;56061;51.748;19.620;2023-05-24T03:28:28;98600.80;;;15.10
69007;BMP180;56061;51.748;19.620;2023-05-24T03:31:05;98603.00;;;15.10
69007;BMP180;56061;51.748;19.620;2023-05-24T03:33:32;98607.60;;;15.10
69007;BMP180;56061;51.748;19.620;2023-05-24T03:35:58;98606.80;;;15.10
69007;BMP180;56061;51.748;19.620;2023-05-24T03:38:25;98606.00;;;15.12
69007;BMP180;56061;51.748;19.620;2023-05-24T03:41:01;98602.60;;;15.20
69007;BMP180;56061;51.748;19.620;2023-05-24T03:43:28;98603.40;;;15.20
69007;BMP180;56061;51.748;19.620;2023-05-24T03:45:54;98603.00;;;15.30
69007;BMP180;56061;51.748;19.620;2023-05-24T03:48:21;98604.00;;;15.30
69007;BMP180;56061;51.748;19.620;2023-05-24T03:50:47;98606.00;;;15.40
69007;BMP180;56061;51.748;19.620;2023-05-24T03:53:14;98609.20;;;15.40
69007;BMP180;56061;51.748;19.620;2023-05-24T03:55:54;98610.80;;;15.40
69007;BMP180;56061;51.748;19.620;2023-05-24T03:58:21;98610.80;;;15.40
69007;BMP180;56061;51.748;19.620;2023-05-24T04:00:47;98614.20;;;15.50
69007;BMP180;56061;51.748;19.620;2023-05-24T04:03:14;98614.40;;;15.50
69007;BMP180;56061;51.748;19.620;2023-05-24T04:05:50;98616.80;;;15.50
69007;BMP180;56061;51.748;19.620;2023-05-24T04:08:16;98619.00;;;15.60
69007;BMP180;56061;51.748;19.620;2023-05-24T04:10:43;98621.40;;;15.60
69007;BMP180;56061;51.748;19.620;2023-05-24T04:13:10;98621.20;;;15.70
69007;BMP180;56061;51.748;19.620;2023-05-24T04:15:36;98623.40;;;15.70
69007;BMP180;56061;51.748;19.620;2023-05-24T04:18:04;98623.60;;;15.80
69007;BMP180;56061;51.748;19.620;2023-05-24T04:20:31;98628.60;;;15.80
69007;BMP180;56061;51.748;19.620;2023-05-24T04:22:57;98632.20;;;15.88
69007;BMP180;56061;51.748;19.620;2023-05-24T04:25:24;98640.80;;;15.90
69007;BMP180;56061;51.748;19.620;2023-05-24T04:27:52;98637.20;;;16.00
69007;BMP180;56061;51.748;19.620;2023-05-24T04:30:18;98648.60;;;16.08
69007;BMP180;56061;51.748;19.620;2023-05-24T04:32:49;98648.80;;;16.10
69007;BMP180;56061;51.748;19.620;2023-05-24T04:35:16;98648.80;;;16.10
69007;BMP180;56061;51.748;19.620;2023-05-24T04:37:43;98651.00;;;16.20
69007;BMP180;56061;51.748;19.620;2023-05-24T04:40:10;98653.00;;;16.20
69007;BMP180;56061;51.748;19.620;2023-05-24T04:42:37;98653.40;;;16.20
69007;BMP180;56061;51.748;19.620;2023-05-24T04:45:13;98651.40;;;16.20
69007;BMP180;56061;51.748;19.620;2023-05-24T04:47:40;98655.40;;;16.30
69007;BMP180;56061;51.748;19.620;2023-05-24T04:50:07;98656.00;;;16.42
69007;BMP180;56061;51.748;19.620;2023-05-24T04:52:33;98656.20;;;16.58
69007;BMP180;56061;51.748;19.620;2023-05-24T04:55:02;98664.20;;;16.70
69007;BMP180;56061;51.748;19.620;2023-05-24T04:57:39;98667.00;;;16.72
69007;BMP180;56061;51.748;19.620;2023-05-24T05:00:07;98664.00;;;16.80
69007;BMP180;56061;51.748;19.620;2023-05-24T05:02:33;98665.20;;;16.90
69007;BMP180;56061;51.748;19.620;2023-05-24T05:05:00;98665.00;;;16.92
69007;BMP180;56061;51.748;19.620;2023-05-24T05:07:27;98670.20;;;17.00
69007;BMP180;56061;51.748;19.620;2023-05-24T05:10:02;98678.00;;;17.00
69007;BMP180;56061;51.748;19.620;2023-05-24T05:12:28;98673.00;;;17.00
69007;BMP180;56061;51.748;19.620;2023-05-24T05:14:54;98680.20;;;17.06
69007;BMP180;56061;51.748;19.620;2023-05-24T05:17:21;98677.00;;;17.10
69007;BMP180;56061;51.748;19.620;2023-05-24T05:19:47;98683.20;;;17.16
69007;BMP180;56061;51.748;19.620;2023-05-24T05:22:23;98688.80;;;17.30
69007;BMP180;56061;51.748;19.620;2023-05-24T05:24:50;98694.60;;;17.30
69007;BMP180;56061;51.748;19.620;2023-05-24T05:27:17;98688.00;;;17.30
69007;BMP180;56061;51.748;19.620;2023-05-24T05:29:44;98692.40;;;17.40
69007;BMP180;56061;51.748;19.620;2023-05-24T05:32:10;98688.00;;;17.50
69007;BMP180;56061;51.748;19.620;2023-05-24T05:34:36;98698.60;;;17.60
69007;BMP180;56061;51.748;19.620;2023-05-24T05:37:12;98701.60;;;17.70
69007;BMP180;56061;51.748;19.620;2023-05-24T05:39:39;98706.60;;;17.70
69007;BMP180;56061;51.748;19.620;2023-05-24T05:42:06;98702.60;;;17.70
69007;BMP180;56061;51.748;19.620;2023-05-24T05:44:32;98704.60;;;17.70
69007;BMP180;56061;51.748;19.620;2023-05-24T05:46:59;98704.00;;;17.70
69007;BMP180;56061;51.748;19.620;2023-05-24T05:49:26;98710.20;;;17.70
69007;BMP180;56061;51.748;19.620;2023-05-24T05:51:52;98709.80;;;17.70
69007;BMP180;56061;51.748;19.620;2023-05-24T05:54:19;98714.60;;;17.70
69007;BMP180;56061;51.748;19.620;2023-05-24T05:56:46;98707.80;;;17.70
69007;BMP180;56061;51.748;19.620;2023-05-24T05:59:14;98709.00;;;17.80
69007;BMP180;56061;51.748;19.620;2023-05-24T06:01:42;98715.80;;;17.80
69007;BMP180;56061;51.748;19.620;2023-05-24T06:04:17;98717.20;;;17.90
69007;BMP180;56061;51.748;19.620;2023-05-24T06:06:44;98713.20;;;18.10
69007;BMP180;56061;51.748;19.620;2023-05-24T06:09:15;98717.00;;;18.20
69007;BMP180;56061;51.748;19.620;2023-05-24T06:11:42;98721.60;;;18.40
69007;BMP180;56061;51.748;19.620;2023-05-24T06:14:14;98722.80;;;18.60
69007;BMP180;56061;51.748;19.620;2023-05-24T06:16:45;98721.20;;;18.70
69007;BMP180;56061;51.748;19.620;2023-05-24T06:19:13;98725.60;;;18.80
69007;BMP180;56061;51.748;19.620;2023-05-24T06:21:40;98727.80;;;18.90
69007;BMP180;56061;51.748;19.620;2023-05-24T06:24:21;98732.80;;;18.80
69007;BMP180;56061;51.748;19.620;2023-05-24T06:26:51;98737.20;;;18.80
69007;BMP180;56061;51.748;19.620;2023-05-24T06:29:18;98736.80;;;18.80
69007;BMP180;56061;51.748;19.620;2023-05-24T06:31:50;98742.60;;;18.80
69007;BMP180;56061;51.748;19.620;2023-05-24T06:34:18;98760.40;;;18.90
69007;BMP180;56061;51.748;19.620;2023-05-24T06:36:47;98761.00;;;18.90
69007;BMP180;56061;51.748;19.620;2023-05-24T06:39:16;98773.80;;;18.90
69007;BMP180;56061;51.748;19.620;2023-05-24T06:41:45;98771.40;;;18.90
69007;BMP180;56061;51.748;19.620;2023-05-24T06:44:12;98773.40;;;18.84
69007;BMP180;56061;51.748;19.620;2023-05-24T06:46:39;98775.40;;;18.80
69007;BMP180;56061;51.748;19.620;2023-05-24T06:49:09;98784.20;;;18.80
69007;BMP180;56061;51.748;19.620;2023-05-24T06:51:35;98781.40;;;18.80
69007;BMP180;56061;51.748;19.620;2023-05-24T06:54:03;98782.00;;;18.90
69007;BMP180;56061;51.748;19.620;2023-05-24T06:56:29;98785.40;;;19.00
69007;BMP180;56061;51.748;19.620;2023-05-24T06:58:57;98793.60;;;19.00
69007;BMP180;56061;51.748;19.620;2023-05-24T07:01:30;98792.40;;;19.00
69007;BMP180;56061;51.748;19.620;2023-05-24T07:03:59;98793.80;;;19.00
69007;BMP180;56061;51.748;19.620;2023-05-24T07:06:26;98801.00;;;19.10
69007;BMP180;56061;51.748;19.620;2023-05-24T07:08:52;98801.00;;;19.10
69007;BMP180;56061;51.748;19.620;2023-05-24T07:11:19;98808.80;;;19.20
69007;BMP180;56061;51.748;19.620;2023-05-24T07:13:57;98818.40;;;19.20
69007;BMP180;56061;51.748;19.620;2023-05-24T07:16:23;98815.40;;;19.10
69007;BMP180;56061;51.748;19.620;2023-05-24T07:18:50;98818.00;;;19.00
69007;BMP180;56061;51.748;19.620;2023-05-24T07:21:17;98817.20;;;18.90
69007;BMP180;56061;51.748;19.620;2023-05-24T07:23:43;98820.20;;;18.86
69007;BMP180;56061;51.748;19.620;2023-05-24T07:26:19;98823.80;;;18.82
69007;BMP180;56061;51.748;19.620;2023-05-24T07:28:46;98825.80;;;18.80
69007;BMP180;56061;51.748;19.620;2023-05-24T07:31:13;98824.40;;;18.80
69007;BMP180;56061;51.748;19.620;2023-05-24T07:33:40;98831.40;;;18.90
69007;BMP180;56061;51.748;19.620;2023-05-24T07:36:07;98833.00;;;19.00
69007;BMP180;56061;51.748;19.620;2023-05-24T07:38:43;98835.00;;;19.00
69007;BMP180;56061;51.748;19.620;2023-05-24T07:41:12;98836.00;;;19.00
69007;BMP180;56061;51.748;19.620;2023-05-24T07:43:39;98837.20;;;19.00
69007;BMP180;56061;51.748;19.620;2023-05-24T07:46:06;98839.60;;;19.00
69007;BMP180;56061;51.748;19.620;2023-05-24T07:48:32;98838.40;;;18.92
69007;BMP180;56061;51.748;19.620;2023-05-24T07:51:02;98843.20;;;19.00
69007;BMP180;56061;51.748;19.620;2023-05-24T07:53:29;98851.00;;;19.00
69007;BMP180;56061;51.748;19.620;2023-05-24T07:55:55;98841.00;;;19.06
69007;BMP180;56061;51.748;19.620;2023-05-24T07:58:21;98846.00;;;19.10
69007;BMP180;56061;51.748;19.620;2023-05-24T08:00:48;98851.20;;;19.20
69007;BMP180;56061;51.748;19.620;2023-05-24T08:03:14;98856.60;;;19.30
69007;BMP180;56061;51.748;19.620;2023-05-24T08:05:43;98861.80;;;19.30
69007;BMP180;56061;51.748;19.620;2023-05-24T08:08:10;98863.60;;;19.20
69007;BMP180;56061;51.748;19.620;2023-05-24T08:10:36;98867.40;;;19.30
69007;BMP180;56061;51.748;19.620;2023-05-24T08:13:03;98871.00;;;19.50
69007;BMP180;56061;51.748;19.620;2023-05-24T08:15:30;98872.40;;;19.70
69007;BMP180;56061;51.748;19.620;2023-05-24T08:17:57;98872.60;;;19.80
69007;BMP180;56061;51.748;19.620;2023-05-24T08:20:26;98872.20;;;19.82
69007;BMP180;56061;51.748;19.620;2023-05-24T08:22:53;98883.40;;;19.90
69007;BMP180;56061;51.748;19.620;2023-05-24T08:25:20;98891.20;;;19.80
69007;BMP180;56061;51.748;19.620;2023-05-24T08:27:46;98894.80;;;19.62
69007;BMP180;56061;51.748;19.620;2023-05-24T08:30:13;98894.20;;;19.50
69007;BMP180;56061;51.748;19.620;2023-05-24T08:32:40;98892.20;;;19.50
69007;BMP180;56061;51.748;19.620;2023-05-24T08:35:10;98889.20;;;19.50
69007;BMP180;56061;51.748;19.620;2023-05-24T08:37:47;98898.60;;;19.60
69007;BMP180;56061;51.748;19.620;2023-05-24T08:40:14;98900.00;;;19.48
69007;BMP180;56061;51.748;19.620;2023-05-24T08:42:41;98901.20;;;19.30
69007;BMP180;56061;51.748;19.620;2023-05-24T08:45:11;98907.00;;;19.20
69007;BMP180;56061;51.748;19.620;2023-05-24T08:47:39;98901.00;;;19.20
69007;BMP180;56061;51.748;19.620;2023-05-24T08:50:07;98899.40;;;19.20
69007;BMP180;56061;51.748;19.620;2023-05-24T08:52:35;98906.40;;;19.30
69007;BMP180;56061;51.748;19.620;2023-05-24T08:55:03;98906.60;;;19.40
69007;BMP180;56061;51.748;19.620;2023-05-24T08:57:32;98913.20;;;19.40
69007;BMP180;56061;51.748;19.620;2023-05-24T09:00:07;98913.40;;;19.30
69007;BMP180;56061;51.748;19.620;2023-05-24T09:02:39;98917.20;;;19.10
69007;BMP180;56061;51.748;19.620;2023-05-24T09:05:10;98912.80;;;19.10
69007;BMP180;56061;51.748;19.620;2023-05-24T09:07:39;98913.60;;;19.20
69007;BMP180;56061;51.748;19.620;2023-05-24T09:10:08;98917.60;;;19.30
69007;BMP180;56061;51.748;19.620;2023-05-24T09:12:36;98919.20;;;19.30
69007;BMP180;56061;51.748;19.620;2023-05-24T09:15:07;98924.40;;;19.40
69007;BMP180;56061;51.748;19.620;2023-05-24T09:17:35;98936.00;;;19.60
69007;BMP180;56061;51.748;19.620;2023-05-24T09:20:04;98937.40;;;19.60
69007;BMP180;56061;51.748;19.620;2023-05-24T09:22:33;98934.80;;;19.60
69007;BMP180;56061;51.748;19.620;2023-05-24T09:25:04;98938.60;;;19.70
69007;BMP180;56061;51.748;19.620;2023-05-24T09:27:33;98939.60;;;19.70
69007;BMP180;56061;51.748;19.620;2023-05-24T09:30:01;98939.00;;;19.90
69007;BMP180;56061;51.748;19.620;2023-05-24T09:32:30;98940.60;;;20.10
69007;BMP180;56061;51.748;19.620;2023-05-24T09:34:58;98940.40;;;20.32
69007;BMP180;56061;51.748;19.620;2023-05-24T09:37:26;98944.80;;;20.50
69007;BMP180;56061;51.748;19.620;2023-05-24T09:39:57;98946.20;;;20.60
69007;BMP180;56061;51.748;19.620;2023-05-24T09:42:26;98949.20;;;20.80
69007;BMP180;56061;51.748;19.620;2023-05-24T09:45:05;98959.20;;;20.90
69007;BMP180;56061;51.748;19.620;2023-05-24T09:47:36;98954.60;;;20.92
69007;BMP180;56061;51.748;19.620;2023-05-24T09:50:11;98960.00;;;20.90
69007;BMP180;56061;51.748;19.620;2023-05-24T09:52:38;98950.40;;;20.90
69007;BMP180;56061;51.748;19.620;2023-05-24T09:55:13;98958.40;;;20.90
69007;BMP180;56061;51.748;19.620;2023-05-24T09:57:42;98950.40;;;20.80
69007;BMP180;56061;51.748;19.620;2023-05-24T10:00:10;98966.80;;;20.90
69007;BMP180;56061;51.748;19.620;2023-05-24T10:02:46;98970.80;;;20.90
69007;BMP180;56061;51.748;19.620;2023-05-24T10:05:25;98965.00;;;20.70
69007;BMP180;56061;51.748;19.620;2023-05-24T10:07:54;98966.20;;;20.80
69007;BMP180;56061;51.748;19.620;2023-05-24T10:10:21;98967.80;;;21.00
69007;BMP180;56061;51.748;19.620;2023-05-24T10:12:48;98972.80;;;21.10
69007;BMP180;56061;51.748;19.620;2023-05-24T10:15:15;98975.00;;;21.20
69007;BMP180;56061;51.748;19.620;2023-05-24T10:17:42;98972.00;;;21.20
69007;BMP180;56061;51.748;19.620;2023-05-24T10:20:10;98971.80;;;21.20
69007;BMP180;56061;51.748;19.620;2023-05-24T10:22:43;98968.40;;;21.20
69007;BMP180;56061;51.748;19.620;2023-05-24T10:25:22;98968.60;;;21.30
69007;BMP180;56061;51.748;19.620;2023-05-24T10:27:57;98970.80;;;21.40
69007;BMP180;56061;51.748;19.620;2023-05-24T10:31:01;98974.80;;;21.40
69007;BMP180;56061;51.748;19.620;2023-05-24T10:33:30;98981.40;;;21.50
69007;BMP180;56061;51.748;19.620;2023-05-24T10:35:59;98988.40;;;21.50
69007;BMP180;56061;51.748;19.620;2023-05-24T10:38:26;98995.20;;;21.40
69007;BMP180;56061;51.748;19.620;2023-05-24T10:40:53;98997.60;;;21.40
69007;BMP180;56061;51.748;19.620;2023-05-24T10:43:23;99002.60;;;21.50
69007;BMP180;56061;51.748;19.620;2023-05-24T10:45:51;99000.80;;;21.50
69007;BMP180;56061;51.748;19.620;2023-05-24T10:50:45;99012.40;;;21.14
69007;BMP180;56061;51.748;19.620;2023-05-24T10:53:17;99012.00;;;21.00
69007;BMP180;56061;51.748;19.620;2023-05-24T10:56:00;99021.00;;;20.94
69007;BMP180;56061;51.748;19.620;2023-05-24T11:01:31;99018.40;;;20.60
69007;BMP180;56061;51.748;19.620;2023-05-24T11:04:14;99015.00;;;20.50
69007;BMP180;56061;51.748;19.620;2023-05-24T11:09:18;99026.40;;;20.40
69007;BMP180;56061;51.748;19.620;2023-05-24T11:11:48;99027.80;;;20.40
69007;BMP180;56061;51.748;19.620;2023-05-24T11:14:37;99029.40;;;20.50
69007;BMP180;56061;51.748;19.620;2023-05-24T11:17:08;99026.00;;;20.70
69007;BMP180;56061;51.748;19.620;2023-05-24T11:19:37;99029.20;;;20.82
69007;BMP180;56061;51.748;19.620;2023-05-24T11:22:07;99031.40;;;20.82
69007;BMP180;56061;51.748;19.620;2023-05-24T11:24:34;99027.60;;;20.90
69007;BMP180;56061;51.748;19.620;2023-05-24T11:27:02;99027.60;;;21.20
69007;BMP180;56061;51.748;19.620;2023-05-24T11:29:39;99029.20;;;21.48
69007;BMP180;56061;51.748;19.620;2023-05-24T11:32:05;99027.20;;;21.58
69007;BMP180;56061;51.748;19.620;2023-05-24T11:34:33;99027.80;;;21.40
69007;BMP180;56061;51.748;19.620;2023-05-24T11:37:01;99025.00;;;21.50
69007;BMP180;56061;51.748;19.620;2023-05-24T11:39:33;99030.40;;;21.60
69007;BMP180;56061;51.748;19.620;2023-05-24T11:42:03;99027.40;;;21.70
69007;BMP180;56061;51.748;19.620;2023-05-24T11:44:31;99028.80;;;21.76
69007;BMP180;56061;51.748;19.620;2023-05-24T11:47:00;99032.80;;;21.80
69007;BMP180;56061;51.748;19.620;2023-05-24T11:49:27;99030.00;;;21.90
69007;BMP180;56061;51.748;19.620;2023-05-24T11:51:56;99033.00;;;21.86
69007;BMP180;56061;51.748;19.620;2023-05-24T11:54:24;99036.40;;;21.92
69007;BMP180;56061;51.748;19.620;2023-05-24T11:56:52;99041.60;;;22.00
69007;BMP180;56061;51.748;19.620;2023-05-24T11:59:25;99040.80;;;22.00
69007;BMP180;56061;51.748;19.620;2023-05-24T12:02:01;99040.20;;;21.90
69007;BMP180;56061;51.748;19.620;2023-05-24T12:04:29;99044.00;;;21.92
69007;BMP180;56061;51.748;19.620;2023-05-24T12:06:57;99049.60;;;22.00
69007;BMP180;56061;51.748;19.620;2023-05-24T12:09:24;99049.20;;;22.02
69007;BMP180;56061;51.748;19.620;2023-05-24T12:11:51;99058.80;;;22.00
69007;BMP180;56061;51.748;19.620;2023-05-24T12:14:23;99064.00;;;21.98
69007;BMP180;56061;51.748;19.620;2023-05-24T12:16:54;99058.20;;;21.80
69007;BMP180;56061;51.748;19.620;2023-05-24T12:19:23;99059.80;;;21.80
69007;BMP180;56061;51.748;19.620;2023-05-24T12:22:02;99067.60;;;21.80
69007;BMP180;56061;51.748;19.620;2023-05-24T12:24:31;99066.80;;;21.90
69007;BMP180;56061;51.748;19.620;2023-05-24T12:27:01;99072.60;;;22.00
69007;BMP180;56061;51.748;19.620;2023-05-24T12:29:38;99077.20;;;21.90
69007;BMP180;56061;51.748;19.620;2023-05-24T12:32:09;99076.80;;;21.80
69007;BMP180;56061;51.748;19.620;2023-05-24T12:34:42;99079.00;;;21.80
69007;BMP180;56061;51.748;19.620;2023-05-24T12:37:11;99084.80;;;21.66
69007;BMP180;56061;51.748;19.620;2023-05-24T12:39:38;99087.00;;;21.50
69007;BMP180;56061;51.748;19.620;2023-05-24T12:42:10;99087.40;;;21.46
69007;BMP180;56061;51.748;19.620;2023-05-24T12:44:38;99082.80;;;21.32
69007;BMP180;56061;51.748;19.620;2023-05-24T12:47:06;99085.20;;;21.20
69007;BMP180;56061;51.748;19.620;2023-05-24T12:49:37;99088.80;;;21.10
69007;BMP180;56061;51.748;19.620;2023-05-24T12:52:04;99088.60;;;20.90
69007;BMP180;56061;51.748;19.620;2023-05-24T12:54:32;99084.20;;;20.90
69007;BMP180;56061;51.748;19.620;2023-05-24T12:56:59;99085.20;;;20.90
69007;BMP180;56061;51.748;19.620;2023-05-24T12:59:26;99085.40;;;21.00
69007;BMP180;56061;51.748;19.620;2023-05-24T13:01:56;99088.60;;;21.02
69007;BMP180;56061;51.748;19.620;2023-05-24T13:04:24;99085.60;;;21.00
69007;BMP180;56061;51.748;19.620;2023-05-24T13:06:55;99093.20;;;20.90
69007;BMP180;56061;51.748;19.620;2023-05-24T13:09:22;99089.80;;;20.76
69007;BMP180;56061;51.748;19.620;2023-05-24T13:11:50;99093.00;;;20.62
69007;BMP180;56061;51.748;19.620;2023-05-24T13:14:23;99093.20;;;20.50
69007;BMP180;56061;51.748;19.620;2023-05-24T13:16:50;99092.80;;;20.50
69007;BMP180;56061;51.748;19.620;2023-05-24T13:19:17;99098.60;;;20.50
69007;BMP180;56061;51.748;19.620;2023-05-24T13:21:44;99095.80;;;20.40
69007;BMP180;56061;51.748;19.620;2023-05-24T13:24:13;99090.60;;;20.30
69007;BMP180;56061;51.748;19.620;2023-05-24T13:26:42;99095.00;;;20.20
69007;BMP180;56061;51.748;19.620;2023-05-24T13:29:09;99096.20;;;20.00
69007;BMP180;56061;51.748;19.620;2023-05-24T13:31:38;99095.20;;;19.80
69007;BMP180;56061;51.748;19.620;2023-05-24T13:34:07;99096.80;;;19.56
69007;BMP180;56061;51.748;19.620;2023-05-24T13:36:35;99095.40;;;19.50
69007;BMP180;56061;51.748;19.620;2023-05-24T13:39:04;99095.40;;;19.44
69007;BMP180;56061;51.748;19.620;2023-05-24T13:41:43;99095.40;;;19.30
69007;BMP180;56061;51.748;19.620;2023-05-24T13:44:12;99090.80;;;19.20
69007;BMP180;56061;51.748;19.620;2023-05-24T13:46:39;99092.20;;;19.20
69007;BMP180;56061;51.748;19.620;2023-05-24T13:49:17;99094.60;;;19.20
69007;BMP180;56061;51.748;19.620;2023-05-24T13:51:44;99096.80;;;19.22
69007;BMP180;56061;51.748;19.620;2023-05-24T13:54:10;99100.40;;;19.30
69007;BMP180;56061;51.748;19.620;2023-05-24T13:56:37;99096.80;;;19.40
69007;BMP180;56061;51.748;19.620;2023-05-24T13:59:05;99099.40;;;19.42
69007;BMP180;56061;51.748;19.620;2023-05-24T14:01:33;99102.80;;;19.40
69007;BMP180;56061;51.748;19.620;2023-05-24T14:04:04;99102.80;;;19.40
69007;BMP180;56061;51.748;19.620;2023-05-24T14:06:32;99097.80;;;19.40
69007;BMP180;56061;51.748;19.620;2023-05-24T14:08:59;99096.40;;;19.46
69007;BMP180;56061;51.748;19.620;2023-05-24T14:11:28;99089.20;;;19.56
69007;BMP180;56061;51.748;19.620;2023-05-24T14:14:06;99094.00;;;19.70
69007;BMP180;56061;51.748;19.620;2023-05-24T14:16:53;99094.80;;;19.50
69007;BMP180;56061;51.748;19.620;2023-05-24T14:19:21;99088.80;;;19.40
69007;BMP180;56061;51.748;19.620;2023-05-24T14:21:57;99097.20;;;19.32
69007;BMP180;56061;51.748;19.620;2023-05-24T14:24:24;99092.20;;;19.30
69007;BMP180;56061;51.748;19.620;2023-05-24T14:26:51;99090.80;;;19.40